createdAt,value
2018-01-12T00:00:20.784Z,34.63
2018-01-12T00:02:49.455Z,34.40
2018-01-12T00:05:17.944Z,33.27
2018-01-12T00:07:46.670Z,33.10
2018-01-12T00:10:16.203Z,32.67
2018-01-12T00:12:44.696Z,30.60
2018-01-12T00:15:13.947Z,30.30
2018-01-12T00:17:42.487Z,28.67
2018-01-12T00:20:10.975Z,27.97
2018-01-12T00:22:39.463Z,29.20
2018-01-12T00:25:08.492Z,31.13
2018-01-12T00:27:36.982Z,30.83
2018-01-12T00:30:05.655Z,31.20
2018-01-12T00:32:34.220Z,31.87
2018-01-12T00:35:02.838Z,28.30
2018-01-12T00:37:31.330Z,29.07
2018-01-12T00:40:00.091Z,29.13
2018-01-12T00:42:28.789Z,30.67
2018-01-12T00:44:57.464Z,30.47
2018-01-12T00:47:26.283Z,30.87
2018-01-12T00:49:54.807Z,27.80
2018-01-12T00:52:23.520Z,27.37
2018-01-12T00:54:52.141Z,26.77
2018-01-12T00:57:21.545Z,27.20
2018-01-12T00:59:50.056Z,26.17
2018-01-12T01:02:18.599Z,25.17
2018-01-12T01:04:47.298Z,27.43
2018-01-12T01:07:16.765Z,27.87
2018-01-12T01:09:45.291Z,29.70
2018-01-12T01:12:14.549Z,29.87
2018-01-12T01:14:43.129Z,29.30
2018-01-12T01:17:11.867Z,31.23
2018-01-12T01:19:41.124Z,29.50
2018-01-12T01:22:09.802Z,29.27
2018-01-12T01:24:38.344Z,29.27
2018-01-12T01:27:06.841Z,30.77
2018-01-12T01:29:35.552Z,37.97
2018-01-12T01:32:04.340Z,31.23
2018-01-12T01:34:32.831Z,30.07
2018-01-12T01:37:01.510Z,29.00
2018-01-12T01:39:30.052Z,27.90
2018-01-12T01:41:58.547Z,27.30
2018-01-12T01:44:27.209Z,27.03
2018-01-12T01:46:56.696Z,29.30
2018-01-12T01:49:26.120Z,28.33
2018-01-12T01:51:55.367Z,28.80
2018-01-12T01:54:24.156Z,26.97
2018-01-12T01:56:53.003Z,29.67
2018-01-12T01:59:22.089Z,29.20
2018-01-12T02:04:26.879Z,28.07
2018-01-12T02:06:55.410Z,26.80
2018-01-12T02:09:24.761Z,27.37
2018-01-12T02:11:53.557Z,28.80
2018-01-12T02:21:07.887Z,25.17
2018-01-12T02:23:37.142Z,24.20
2018-01-12T02:26:06.410Z,25.60
2018-01-12T02:28:35.262Z,25.23
2018-01-12T02:31:04.028Z,27.27
2018-01-12T02:33:32.518Z,27.87
2018-01-12T02:36:01.111Z,27.87
2018-01-12T02:38:29.604Z,28.10
2018-01-12T02:40:58.851Z,30.27
2018-01-12T02:43:27.412Z,30.83
2018-01-12T02:45:56.008Z,34.50
2018-01-12T02:48:24.682Z,34.00
2018-01-12T02:50:53.438Z,35.27
2018-01-12T02:53:22.093Z,35.37
2018-01-12T02:55:50.778Z,32.63
2018-01-12T02:58:19.500Z,31.33
2018-01-12T03:00:47.983Z,28.30
2018-01-12T03:03:17.238Z,28.53
2018-01-12T03:05:45.802Z,30.07
2018-01-12T03:08:14.515Z,30.30
2018-01-12T03:10:43.767Z,30.23
2018-01-12T03:13:13.360Z,30.53
2018-01-12T03:15:42.832Z,30.07
2018-01-12T03:18:11.323Z,29.53
2018-01-12T03:20:39.855Z,28.07
2018-01-12T03:23:08.582Z,27.77
2018-01-12T03:25:37.219Z,29.13
2018-01-12T03:28:06.543Z,29.47
2018-01-12T03:30:35.024Z,28.07
2018-01-12T03:33:03.623Z,30.50
2018-01-12T03:35:32.451Z,28.10
2018-01-12T03:38:01.816Z,25.90
2018-01-12T03:40:30.303Z,24.73
2018-01-12T03:42:59.188Z,23.60
2018-01-12T03:45:27.667Z,27.80
2018-01-12T03:47:56.251Z,27.57
2018-01-12T03:50:25.401Z,25.50
2018-01-12T03:52:54.853Z,25.57
2018-01-12T03:55:23.538Z,23.80
2018-01-12T03:57:52.354Z,23.00
2018-01-12T04:00:21.011Z,21.60
2018-01-12T04:02:49.495Z,21.03
2018-01-12T04:05:18.029Z,20.30
2018-01-12T04:07:47.280Z,20.43
2018-01-12T04:10:15.918Z,21.77
2018-01-12T04:12:44.911Z,22.30
2018-01-12T04:15:13.391Z,22.87
2018-01-12T04:17:42.639Z,21.03
2018-01-12T04:20:11.491Z,19.93
2018-01-12T04:22:39.975Z,20.50
2018-01-12T04:25:08.455Z,19.40
2018-01-12T04:27:36.983Z,19.37
2018-01-12T04:30:05.495Z,19.50
2018-01-12T04:32:34.797Z,19.67
2018-01-12T04:35:04.498Z,20.70
2018-01-12T04:37:33.963Z,19.93
2018-01-12T04:40:02.452Z,19.20
2018-01-12T04:42:30.980Z,19.30
2018-01-12T04:45:00.226Z,19.40
2018-01-12T04:47:28.711Z,19.53
2018-01-12T04:49:57.423Z,19.97
2018-01-12T04:52:25.910Z,19.73
2018-01-12T04:54:55.378Z,18.90
2018-01-12T04:57:24.108Z,20.67
2018-01-12T04:59:53.528Z,21.10
2018-01-12T05:02:22.780Z,21.17
2018-01-12T05:04:51.571Z,21.57
2018-01-12T05:07:20.061Z,21.00
2018-01-12T05:09:49.028Z,19.47
2018-01-12T05:12:17.572Z,19.30
2018-01-12T05:14:46.061Z,19.03
2018-01-12T05:17:14.559Z,19.47
2018-01-12T05:19:43.468Z,19.63
2018-01-12T05:22:11.957Z,20.60
2018-01-12T05:24:40.439Z,19.90
2018-01-12T05:27:09.423Z,19.47
2018-01-12T05:29:37.911Z,21.43
2018-01-12T05:32:06.392Z,23.17
2018-01-12T05:34:34.940Z,24.07
2018-01-12T05:37:04.103Z,34.93
2018-01-12T05:39:36.095Z,43.10
2018-01-12T05:42:05.471Z,43.60
2018-01-12T05:44:34.727Z,41.90
2018-01-12T05:47:03.247Z,37.87
2018-01-12T05:49:33.029Z,34.50
2018-01-12T05:52:01.519Z,31.73
2018-01-12T05:54:30.289Z,29.37
2018-01-12T05:56:59.012Z,31.77
2018-01-12T05:59:27.823Z,30.37
2018-01-12T06:02:14.703Z,31.70
2018-01-12T06:05:01.269Z,30.90
2018-01-12T06:07:29.804Z,33.17
2018-01-12T06:09:59.270Z,36.50
2018-01-12T06:12:27.755Z,40.50
2018-01-12T06:14:56.543Z,37.40
2018-01-12T06:17:25.029Z,39.87
2018-01-12T06:19:53.522Z,60.83
2018-01-12T06:22:22.241Z,44.03
2018-01-12T06:24:51.593Z,34.73
2018-01-12T06:27:20.088Z,64.30
2018-01-12T06:29:48.624Z,51.97
2018-01-12T06:32:17.116Z,51.40
2018-01-12T06:34:45.603Z,25.33
2018-01-12T06:37:14.134Z,30.07
2018-01-12T06:39:43.399Z,30.27
2018-01-12T06:42:11.881Z,15.47
2018-01-12T06:44:40.441Z,13.63
2018-01-12T06:47:08.935Z,12.77
2018-01-12T06:49:37.481Z,12.93
2018-01-12T06:52:06.968Z,11.13
2018-01-12T06:54:35.528Z,12.27
2018-01-12T06:57:05.682Z,11.70
2018-01-12T06:59:35.183Z,23.93
2018-01-12T07:02:04.484Z,16.27
2018-01-12T07:04:36.356Z,17.07
2018-01-12T07:07:06.324Z,35.37
2018-01-12T07:09:35.328Z,42.27
2018-01-12T07:12:09.001Z,29.57
2018-01-12T07:14:37.662Z,37.17
2018-01-12T07:17:08.833Z,40.63
2018-01-12T07:19:39.768Z,31.33
2018-01-12T07:22:27.739Z,29.83
2018-01-12T07:24:56.375Z,32.23
2018-01-12T07:27:24.881Z,35.50
2018-01-12T07:29:53.492Z,35.80
2018-01-12T07:32:22.292Z,36.60
2018-01-12T07:34:51.568Z,45.57
2018-01-12T07:37:20.063Z,58.67
2018-01-12T07:39:48.660Z,38.30
2018-01-12T07:42:17.203Z,40.07
2018-01-12T07:44:45.751Z,47.53
2018-01-12T07:47:14.352Z,50.33
2018-01-12T07:49:42.856Z,53.80
2018-01-12T07:52:11.356Z,50.13
2018-01-12T07:54:39.958Z,46.57
2018-01-12T07:57:08.532Z,46.50
2018-01-12T07:59:37.499Z,47.33
2018-01-12T08:02:11.796Z,45.37
2018-01-12T08:04:40.288Z,45.27
2018-01-12T08:07:08.782Z,45.20
2018-01-12T08:09:37.426Z,47.77
2018-01-12T08:12:06.144Z,44.77
2018-01-12T08:14:34.726Z,39.90
2018-01-12T08:17:03.263Z,33.40
2018-01-12T08:19:32.712Z,46.10
2018-01-12T08:22:01.397Z,50.03
2018-01-12T08:24:29.964Z,107.83
2018-01-12T08:26:58.459Z,86.60
2018-01-12T08:29:26.947Z,67.03
2018-01-12T08:31:55.636Z,58.77
2018-01-12T08:34:24.131Z,67.70
2018-01-12T08:36:52.851Z,101.97
2018-01-12T08:39:22.183Z,95.37
2018-01-12T08:41:50.678Z,72.73
2018-01-12T08:44:19.179Z,60.43
2018-01-12T08:46:47.887Z,52.53
2018-01-12T08:49:17.170Z,40.53
2018-01-12T08:51:46.427Z,39.33
2018-01-12T08:54:15.202Z,38.53
2018-01-12T08:56:43.921Z,45.53
2018-01-12T08:59:12.435Z,43.27
2018-01-12T09:01:41.036Z,41.23
2018-01-12T09:04:10.294Z,37.17
2018-01-12T09:06:38.973Z,35.13
2018-01-12T09:09:07.695Z,39.67
2018-01-12T09:11:36.263Z,40.13
2018-01-12T09:14:22.669Z,35.93
2018-01-12T09:16:52.911Z,32.20
2018-01-12T09:19:46.720Z,27.53
2018-01-12T09:25:10.768Z,24.13
2018-01-12T09:27:39.263Z,25.40
2018-01-12T09:30:08.526Z,23.37
2018-01-12T09:32:37.155Z,23.13
2018-01-12T09:35:06.568Z,24.47
2018-01-12T09:37:41.903Z,20.13
2018-01-12T09:43:11.793Z,19.20
2018-01-12T09:45:40.370Z,49.07
2018-01-12T09:48:36.487Z,22.30
2018-01-12T09:51:04.998Z,16.10
2018-01-12T09:53:33.558Z,17.03
2018-01-12T09:56:02.200Z,19.83
2018-01-12T09:58:31.764Z,17.57
2018-01-12T10:01:05.849Z,15.97
2018-01-12T10:03:34.387Z,18.53
2018-01-12T10:06:03.704Z,18.10
2018-01-12T10:08:32.431Z,19.37
2018-01-12T10:11:00.927Z,17.07
2018-01-12T10:13:29.419Z,18.77
2018-01-12T10:18:34.775Z,15.13
2018-01-12T10:21:12.950Z,15.67
2018-01-12T10:23:40.629Z,14.40
2018-01-12T10:26:08.276Z,15.40
2018-01-12T10:28:41.809Z,17.00
2018-01-12T10:31:09.602Z,15.03
2018-01-12T10:33:56.125Z,14.07
2018-01-12T10:36:46.196Z,9.23
2018-01-12T10:39:21.761Z,8.50
2018-01-12T10:42:08.276Z,8.87
2018-01-12T10:44:35.953Z,8.47
2018-01-12T10:47:22.431Z,8.87
2018-01-12T10:50:11.192Z,11.47
2018-01-12T10:52:45.751Z,13.07
2018-01-12T10:55:13.442Z,12.73
2018-01-12T10:57:41.845Z,13.33
2018-01-12T11:00:21.630Z,11.87
2018-01-12T11:02:49.331Z,12.97
2018-01-12T11:05:17.737Z,13.63
2018-01-12T11:07:45.685Z,12.80
2018-01-12T11:10:14.094Z,13.23
2018-01-12T11:12:41.725Z,12.37
2018-01-12T11:15:10.201Z,12.70
2018-01-12T11:17:38.607Z,15.23
2018-01-12T11:20:06.281Z,11.87
2018-01-12T11:22:34.022Z,9.13
2018-01-12T11:25:02.491Z,8.97
2018-01-12T11:27:30.890Z,6.70
2018-01-12T11:29:58.626Z,6.47
2018-01-12T11:32:27.031Z,5.93
2018-01-12T11:34:54.733Z,4.30
2018-01-12T11:37:22.420Z,2.87
2018-01-12T11:39:50.118Z,2.33
2018-01-12T11:42:18.135Z,1.90
2018-01-12T11:44:46.054Z,1.73
2018-01-12T11:47:13.695Z,1.60
2018-01-12T11:49:42.160Z,1.30
2018-01-12T11:52:10.093Z,1.53
2018-01-12T11:54:37.745Z,1.70
2018-01-12T11:57:05.459Z,1.23
2018-01-12T11:59:33.507Z,0.97
2018-01-12T12:02:01.178Z,1.03
2018-01-12T12:04:28.871Z,0.93
2018-01-12T12:06:57.366Z,1.07
2018-01-12T12:12:05.967Z,0.90
2018-01-12T12:16:24.039Z,2.40
2018-01-12T12:18:53.535Z,1.47
2018-01-12T12:21:22.855Z,1.87
2018-01-12T12:23:51.351Z,0.90
2018-01-12T12:26:19.958Z,1.20
2018-01-12T12:28:48.509Z,0.83
2018-01-12T12:31:17.066Z,1.10
2018-01-12T12:33:46.569Z,0.60
2018-01-12T12:36:15.862Z,0.73
2018-01-12T12:38:44.438Z,0.87
2018-01-12T12:41:14.068Z,1.03
2018-01-12T12:43:43.380Z,1.00
2018-01-12T12:46:11.955Z,1.10
2018-01-12T12:48:41.279Z,1.20
2018-01-12T12:51:09.779Z,1.33
2018-01-12T12:53:38.327Z,1.33
2018-01-12T12:56:06.961Z,1.80
2018-01-12T12:58:35.515Z,1.90
2018-01-12T13:01:04.050Z,3.93
2018-01-12T13:03:32.688Z,3.50
2018-01-12T13:06:01.192Z,3.17
2018-01-12T13:08:29.688Z,3.00
2018-01-12T13:10:58.483Z,2.80
2018-01-12T13:13:27.035Z,1.57
2018-01-12T13:15:55.527Z,1.43
2018-01-12T13:18:24.511Z,0.90
2018-01-12T13:20:53.067Z,0.90
2018-01-12T13:23:21.560Z,0.77
2018-01-12T13:25:50.184Z,1.03
2018-01-12T13:28:18.673Z,1.10
2018-01-12T13:30:47.938Z,0.80
2018-01-12T13:33:16.546Z,0.90
2018-01-12T13:35:45.049Z,0.90
2018-01-12T13:38:14.315Z,3.43
2018-01-12T13:40:42.863Z,5.73
2018-01-12T13:43:11.437Z,28.33
2018-01-12T13:45:40.055Z,4.93
2018-01-12T13:48:08.655Z,5.07
2018-01-12T13:50:37.632Z,1.90
2018-01-12T13:53:06.185Z,2.50
2018-01-12T13:55:35.004Z,1.70
2018-01-12T13:58:03.501Z,1.73
2018-01-12T14:00:32.034Z,1.43
2018-01-12T14:03:00.662Z,2.60
2018-01-12T14:05:29.171Z,1.77
2018-01-12T14:07:58.445Z,4.10
2018-01-12T14:10:27.057Z,1.20
2018-01-12T14:12:56.926Z,2.33
2018-01-12T14:15:25.512Z,6.03
2018-01-12T14:17:54.060Z,10.03
2018-01-12T14:20:22.547Z,7.43
2018-01-12T14:22:51.096Z,2.57
2018-01-12T14:25:20.603Z,2.60
2018-01-12T14:27:49.872Z,3.53
2018-01-12T14:30:18.446Z,3.37
2018-01-12T14:32:47.860Z,2.30
2018-01-12T14:35:16.383Z,1.60
2018-01-12T14:37:45.652Z,1.60
2018-01-12T14:40:14.283Z,1.70
2018-01-12T14:42:42.783Z,1.67
2018-01-12T14:45:11.278Z,2.17
2018-01-12T14:47:40.020Z,2.60
2018-01-12T14:50:09.286Z,2.60
2018-01-12T14:52:37.855Z,2.13
2018-01-12T14:55:06.389Z,1.80
2018-01-12T14:57:35.650Z,1.90
2018-01-12T15:00:04.235Z,1.80
2018-01-12T15:02:33.119Z,1.80
2018-01-12T15:05:01.638Z,1.43
2018-01-12T15:07:30.900Z,1.70
2018-01-12T15:09:59.616Z,2.20
2018-01-12T15:12:28.888Z,2.20
2018-01-12T15:14:57.452Z,1.90
2018-01-12T15:17:26.083Z,2.20
2018-01-12T15:19:55.339Z,2.40
2018-01-12T15:22:23.843Z,2.43
2018-01-12T15:24:52.421Z,3.10
2018-01-12T15:27:20.941Z,3.07
2018-01-12T15:29:49.435Z,3.33
2018-01-12T15:32:18.028Z,3.40
2018-01-12T15:34:46.525Z,2.83
2018-01-12T15:37:15.019Z,3.67
2018-01-12T15:39:43.834Z,3.77
2018-01-12T15:42:12.387Z,4.57
2018-01-12T15:44:40.888Z,4.70
2018-01-12T15:47:09.576Z,4.63
2018-01-12T15:49:38.079Z,4.60
2018-01-12T15:52:07.409Z,4.97
2018-01-12T15:54:35.975Z,6.87
2018-01-12T15:57:05.311Z,7.23
2018-01-12T15:59:33.812Z,8.07
2018-01-12T16:02:03.647Z,8.43
2018-01-12T16:04:32.143Z,8.53
2018-01-12T16:07:01.440Z,9.80
2018-01-12T16:09:31.108Z,10.37
2018-01-12T16:11:59.706Z,9.40
2018-01-12T16:14:28.212Z,8.83
2018-01-12T16:16:57.619Z,9.23
2018-01-12T16:19:26.871Z,8.37
2018-01-12T16:21:55.367Z,7.27
2018-01-12T16:24:24.063Z,6.87
2018-01-12T16:26:52.572Z,6.67
2018-01-12T16:29:21.832Z,6.23
2018-01-12T16:31:50.604Z,6.13
2018-01-12T16:34:19.101Z,6.17
2018-01-12T16:36:47.607Z,5.90
2018-01-12T16:39:17.472Z,6.17
2018-01-12T16:41:45.532Z,11.50
2018-01-12T16:44:14.036Z,13.43
2018-01-12T16:46:42.579Z,41.70
2018-01-12T16:49:11.083Z,15.00
2018-01-12T16:51:39.598Z,19.33
2018-01-12T16:54:08.197Z,17.40
2018-01-12T16:56:36.707Z,17.37
2018-01-12T16:59:05.275Z,19.30
2018-01-12T17:01:34.984Z,15.47
2018-01-12T17:04:04.357Z,15.80
2018-01-12T17:06:32.870Z,23.63
2018-01-12T17:09:02.188Z,57.77
2018-01-12T17:11:30.682Z,30.60
2018-01-12T17:13:59.189Z,23.40
2018-01-12T17:16:27.921Z,14.30
2018-01-12T17:18:57.194Z,13.63
2018-01-12T17:21:25.700Z,15.27
2018-01-12T17:23:55.195Z,15.63
2018-01-12T17:26:23.708Z,15.63
2018-01-12T17:28:52.277Z,17.00
2018-01-12T17:31:21.613Z,34.20
2018-01-12T17:33:50.169Z,39.80
2018-01-12T17:36:19.456Z,18.70
2018-01-12T17:38:48.985Z,13.83
2018-01-12T17:41:17.481Z,13.67
2018-01-12T17:43:45.984Z,13.47
2018-01-12T17:46:14.713Z,14.17
2018-01-12T17:48:44.038Z,14.57
2018-01-12T17:51:12.551Z,14.90
2018-01-12T17:53:41.151Z,16.73
2018-01-12T17:56:09.659Z,18.17
2018-01-12T17:58:38.925Z,16.67
2018-01-12T18:01:07.486Z,16.67
2018-01-12T18:03:36.062Z,16.20
2018-01-12T18:06:04.623Z,14.57
2018-01-12T18:08:34.004Z,13.83
2018-01-12T18:11:03.347Z,12.77
2018-01-12T18:13:31.920Z,12.63
2018-01-12T18:16:00.741Z,12.00
2018-01-12T18:18:29.245Z,12.37
2018-01-12T18:20:57.810Z,10.40
2018-01-12T18:23:26.354Z,10.70
2018-01-12T18:25:54.851Z,12.70
2018-01-12T18:28:23.344Z,9.77
2018-01-12T18:30:51.983Z,9.27
2018-01-12T18:33:21.300Z,8.93
2018-01-12T18:35:49.900Z,7.67
2018-01-12T18:38:19.598Z,8.83
2018-01-12T18:40:48.106Z,9.27
2018-01-12T18:43:16.598Z,9.07
2018-01-12T18:45:45.300Z,8.93
2018-01-12T18:48:13.780Z,10.10
2018-01-12T18:50:42.283Z,10.80
2018-01-12T18:53:11.841Z,12.70
2018-01-12T18:55:40.340Z,12.53
2018-01-12T18:58:09.523Z,15.03
2018-01-12T19:00:39.057Z,16.73
2018-01-12T19:03:07.595Z,14.23
2018-01-12T19:05:36.085Z,13.60
2018-01-12T19:08:05.086Z,17.27
2018-01-12T19:10:33.580Z,14.83
2018-01-12T19:13:02.207Z,27.83
2018-01-12T19:15:31.659Z,18.23
2018-01-12T19:18:00.345Z,14.87
2018-01-12T19:20:28.989Z,13.77
2018-01-12T19:22:57.879Z,13.13
2018-01-12T19:25:27.140Z,12.17
2018-01-12T19:27:55.647Z,12.73
2018-01-12T19:30:24.496Z,11.80
2018-01-12T19:32:53.767Z,9.27
2018-01-12T19:35:22.320Z,8.87
2018-01-12T19:37:51.087Z,8.47
2018-01-12T19:40:20.352Z,7.97
2018-01-12T19:42:48.864Z,6.53
2018-01-12T19:45:18.341Z,7.47
2018-01-12T19:47:46.847Z,8.57
2018-01-12T19:50:16.204Z,7.17
2018-01-12T19:52:44.888Z,7.30
2018-01-12T19:55:13.384Z,8.17
2018-01-12T19:57:41.891Z,9.80
2018-01-12T20:00:11.203Z,8.83
2018-01-12T20:02:40.621Z,9.33
2018-01-12T20:05:09.111Z,8.23
2018-01-12T20:07:37.924Z,10.20
2018-01-12T20:10:07.219Z,9.27
2018-01-12T20:12:35.773Z,10.80
2018-01-12T20:15:04.597Z,11.47
2018-01-12T20:17:33.098Z,9.33
2018-01-12T20:20:01.592Z,8.63
2018-01-12T20:22:30.170Z,8.40
2018-01-12T20:24:58.660Z,8.70
2018-01-12T20:27:27.142Z,9.10
2018-01-12T20:29:55.881Z,8.70
2018-01-12T20:32:24.375Z,7.67
2018-01-12T20:34:53.062Z,7.27
2018-01-12T20:37:21.783Z,7.83
2018-01-12T20:39:50.311Z,11.32
2018-01-12T20:42:19.304Z,8.80
2018-01-12T20:44:48.039Z,8.20
2018-01-12T20:47:16.901Z,8.83
2018-01-12T20:49:45.619Z,8.27
2018-01-12T20:52:15.591Z,8.00
2018-01-12T20:54:44.083Z,8.23
2018-01-12T20:57:12.750Z,8.03
2018-01-12T20:59:42.246Z,8.60
2018-01-12T21:02:11.536Z,8.93
2018-01-12T21:04:41.547Z,7.87
2018-01-12T21:07:10.570Z,7.27
2018-01-12T21:09:40.021Z,8.20
2018-01-12T21:12:08.509Z,8.07
2018-01-12T21:14:37.467Z,8.00
2018-01-12T21:17:05.970Z,8.20
2018-01-12T21:19:34.463Z,9.37
2018-01-12T21:22:03.184Z,11.63
2018-01-12T21:24:32.544Z,27.37
2018-01-12T21:27:01.035Z,42.33
2018-01-12T21:29:30.222Z,37.87
2018-01-12T21:31:58.722Z,39.17
2018-01-12T21:34:27.215Z,38.57
2018-01-12T21:36:57.509Z,22.10
2018-01-12T21:39:26.011Z,17.90
2018-01-12T21:41:54.519Z,19.87
2018-01-12T21:44:23.091Z,20.77
2018-01-12T21:46:52.507Z,18.73
2018-01-12T21:49:21.970Z,17.07
2018-01-12T21:51:50.687Z,10.33
2018-01-12T21:54:19.955Z,9.63
2018-01-12T21:56:48.522Z,12.27
2018-01-12T21:59:17.424Z,11.00
2018-01-12T22:01:45.912Z,8.93
2018-01-12T22:04:14.404Z,7.73
2018-01-12T22:06:42.963Z,8.90
2018-01-12T22:09:11.553Z,8.77
2018-01-12T22:11:40.240Z,7.93
2018-01-12T22:14:09.174Z,8.57
2018-01-12T22:16:38.635Z,7.37
2018-01-12T22:19:07.284Z,7.70
2018-01-12T22:21:36.004Z,7.47
2018-01-12T22:24:04.520Z,8.07
2018-01-12T22:26:34.351Z,7.07
2018-01-12T22:29:03.904Z,7.70
2018-01-12T22:31:32.548Z,7.10
2018-01-12T22:34:01.275Z,6.87
2018-01-12T22:36:29.843Z,9.53
2018-01-12T22:38:58.548Z,7.57
2018-01-12T22:41:27.038Z,8.97
2018-01-12T22:43:55.743Z,8.63
2018-01-12T22:46:24.396Z,7.40
2018-01-12T22:48:52.887Z,7.40
2018-01-12T22:51:21.455Z,7.87
2018-01-12T22:53:49.951Z,8.83
2018-01-12T22:56:18.524Z,7.83
2018-01-12T22:58:47.454Z,6.87
2018-01-12T23:01:17.449Z,9.03
2018-01-12T23:03:46.938Z,9.10
2018-01-12T23:06:15.427Z,9.73
2018-01-12T23:08:43.913Z,9.23
2018-01-12T23:11:12.800Z,7.53
2018-01-12T23:13:41.287Z,9.63
2018-01-12T23:16:09.968Z,9.20
2018-01-12T23:18:38.651Z,9.23
2018-01-12T23:21:07.154Z,9.60
2018-01-12T23:23:36.420Z,9.60
2018-01-12T23:26:05.214Z,10.77
2018-01-12T23:28:33.698Z,9.43
2018-01-12T23:31:02.182Z,8.67
2018-01-12T23:33:31.111Z,9.77
2018-01-12T23:36:00.410Z,10.17
2018-01-12T23:38:29.872Z,9.57
2018-01-12T23:40:58.811Z,9.37
2018-01-12T23:43:28.277Z,10.13
2018-01-12T23:45:56.774Z,9.83
2018-01-12T23:48:25.596Z,10.10
2018-01-12T23:50:55.035Z,8.97
2018-01-12T23:53:23.527Z,9.50
2018-01-12T23:55:52.318Z,8.20
2018-01-12T23:58:20.859Z,10.13
